createdAt,value
2016-04-26T00:00:17.998Z,96.64
2016-04-26T00:01:17.969Z,97.4
2016-04-26T00:02:17.940Z,97.59
2016-04-26T00:03:17.911Z,97.4
2016-04-26T00:04:17.883Z,97.21
2016-04-26T00:05:17.843Z,97.3
2016-04-26T00:06:17.815Z,97.02
2016-04-26T00:07:17.785Z,97.21
2016-04-26T00:08:17.757Z,97.21
2016-04-26T00:09:17.728Z,97.3
2016-04-26T00:10:17.700Z,97.21
2016-04-26T00:11:17.671Z,97.11
2016-04-26T00:12:17.642Z,97.02
2016-04-26T00:13:17.614Z,97.3
2016-04-26T00:14:17.586Z,97.3
2016-04-26T00:15:17.557Z,97.21
2016-04-26T00:16:17.528Z,97.11
2016-04-26T00:17:17.500Z,97.21
2016-04-26T00:18:17.456Z,97.11
2016-04-26T00:19:17.428Z,97.11
2016-04-26T00:20:17.398Z,97.21
2016-04-26T00:21:17.370Z,97.78
2016-04-26T00:22:17.341Z,97.59
2016-04-26T00:23:17.313Z,97.78
2016-04-26T00:24:17.284Z,97.87
2016-04-26T00:25:17.256Z,97.68
2016-04-26T00:26:17.227Z,97.78
2016-04-26T00:27:17.199Z,97.68
2016-04-26T00:28:17.170Z,98.06
2016-04-26T00:29:17.141Z,97.4
2016-04-26T00:30:17.113Z,98.16
2016-04-26T00:31:17.085Z,98.06
2016-04-26T00:32:17.072Z,97.83
2016-04-26T00:33:17.012Z,97.92
2016-04-26T00:34:16.983Z,97.97
2016-04-26T00:35:16.954Z,97.92
2016-04-26T00:36:16.926Z,97.92
2016-04-26T00:37:16.898Z,97.83
2016-04-26T00:38:16.869Z,98.21
2016-04-26T00:39:16.840Z,98.02
2016-04-26T00:40:16.812Z,97.73
2016-04-26T00:41:16.784Z,97.92
2016-04-26T00:42:16.754Z,97.68
2016-04-26T00:43:16.757Z,98.02
2016-04-26T00:44:16.697Z,97.64
2016-04-26T00:45:16.669Z,97.54
2016-04-26T00:46:17.672Z,97.26
2016-04-26T00:47:16.611Z,97.21
2016-04-26T00:48:16.584Z,97.26
2016-04-26T00:49:16.555Z,97.45
2016-04-26T00:50:16.525Z,97.54
2016-04-26T00:51:16.498Z,97.26
2016-04-26T00:52:16.469Z,97.45
2016-04-26T00:53:16.425Z,97.02
2016-04-26T00:54:16.397Z,97.4
2016-04-26T00:55:16.367Z,97.16
2016-04-26T00:56:16.339Z,97.54
2016-04-26T00:57:16.310Z,97.59
2016-04-26T00:58:16.282Z,97.49
2016-04-26T00:59:16.253Z,97.59
2016-04-26T01:00:16.225Z,97.59
2016-04-26T01:01:16.196Z,97.59
2016-04-26T01:02:16.168Z,97.4
2016-04-26T01:03:16.138Z,97.02
2016-04-26T01:04:16.111Z,97.49
2016-04-26T01:05:16.083Z,97.02
2016-04-26T01:06:16.054Z,97.21
2016-04-26T01:07:16.025Z,96.83
2016-04-26T01:08:15.996Z,96.64
2016-04-26T01:09:15.968Z,96.55
2016-04-26T01:10:15.923Z,96.73
2016-04-26T01:11:15.896Z,96.55
2016-04-26T01:12:15.867Z,96.64
2016-04-26T01:13:15.853Z,96.73
2016-04-26T01:14:15.826Z,96.73
2016-04-26T01:15:15.781Z,96.83
2016-04-26T01:16:15.753Z,96.83
2016-04-26T01:17:17.037Z,96.92
2016-04-26T01:18:15.695Z,96.73
2016-04-26T01:19:15.667Z,96.83
2016-04-26T01:20:15.639Z,96.73
2016-04-26T01:21:15.609Z,96.73
2016-04-26T01:22:15.580Z,96.55
2016-04-26T01:23:15.553Z,96.92
2016-04-26T01:24:15.508Z,96.73
2016-04-26T01:25:15.480Z,96.36
2016-04-26T01:26:15.451Z,96.45
2016-04-26T01:27:15.422Z,96.36
2016-04-26T01:28:15.394Z,96.73
2016-04-26T01:29:15.366Z,96.73
2016-04-26T01:30:15.337Z,96.64
2016-04-26T01:31:15.496Z,96.45
2016-04-26T01:32:15.842Z,96.36
2016-04-26T01:33:15.251Z,96.64
2016-04-26T01:34:15.222Z,96.55
2016-04-26T01:35:15.194Z,96.73
2016-04-26T01:36:15.182Z,96.64
2016-04-26T01:37:15.137Z,96.64
2016-04-26T01:38:15.108Z,96.64
2016-04-26T01:39:15.065Z,96.55
2016-04-26T01:40:15.036Z,96.83
2016-04-26T01:41:15.007Z,96.55
2016-04-26T01:42:14.978Z,96.55
2016-04-26T01:43:14.951Z,96.55
2016-04-26T01:44:14.921Z,96.55
2016-04-26T01:45:14.893Z,96.83
2016-04-26T01:46:14.879Z,96.73
2016-04-26T01:47:14.837Z,96.55
2016-04-26T01:48:14.807Z,96.36
2016-04-26T01:49:14.778Z,96.36
2016-04-26T01:50:14.750Z,96.36
2016-04-26T01:51:14.706Z,96.17
2016-04-26T01:52:14.677Z,96.83
2016-04-26T01:53:14.649Z,96.55
2016-04-26T01:54:14.620Z,96.64
2016-04-26T01:55:14.591Z,96.64
2016-04-26T01:56:14.564Z,96.64
2016-04-26T01:57:14.534Z,96.92
2016-04-26T01:58:14.505Z,97.4
2016-04-26T01:59:14.478Z,97.4
2016-04-26T02:00:14.449Z,97.4
2016-04-26T02:01:14.405Z,97.4
2016-04-26T02:02:14.377Z,97.59
2016-04-26T02:03:14.347Z,97.3
2016-04-26T02:04:14.319Z,97.21
2016-04-26T02:05:14.291Z,97.4
2016-04-26T02:06:14.262Z,97.21
2016-04-26T02:07:14.234Z,97.3
2016-04-26T02:08:14.205Z,97.3
2016-04-26T02:09:14.176Z,97.3
2016-04-26T02:10:14.149Z,97.3
2016-04-26T02:11:14.119Z,97.3
2016-04-26T02:12:14.090Z,97.21
2016-04-26T02:13:14.046Z,97.49
2016-04-26T02:14:14.018Z,97.4
2016-04-26T02:15:13.989Z,97.49
2016-04-26T02:16:13.960Z,97.4
2016-04-26T02:17:13.932Z,97.49
2016-04-26T02:18:13.904Z,96.83
2016-04-26T02:19:13.906Z,96.83
2016-04-26T02:20:13.846Z,96.45
2016-04-26T02:21:13.818Z,96.45
2016-04-26T02:22:13.789Z,96.36
2016-04-26T02:23:13.752Z,96.73
2016-04-26T02:24:13.724Z,96.55
2016-04-26T02:25:13.695Z,96.45
2016-04-26T02:26:13.666Z,96.31
2016-04-26T02:27:13.638Z,96.12
2016-04-26T02:28:13.610Z,96.21
2016-04-26T02:29:13.580Z,96.21
2016-04-26T02:30:13.552Z,96.88
2016-04-26T02:31:13.523Z,96.69
2016-04-26T02:32:13.496Z,96.59
2016-04-26T02:33:13.451Z,96.5
2016-04-26T02:34:13.422Z,96.59
2016-04-26T02:35:13.393Z,96.5
2016-04-26T02:36:13.365Z,96.88
2016-04-26T02:37:13.337Z,96.88
2016-04-26T02:38:13.308Z,96.59
2016-04-26T02:39:13.280Z,96.31
2016-04-26T02:40:13.251Z,96.59
2016-04-26T02:41:13.223Z,96.97
2016-04-26T02:42:13.178Z,96.4
2016-04-26T02:43:13.149Z,96.4
2016-04-26T02:44:13.121Z,96.69
2016-04-26T02:45:13.093Z,97.06
2016-04-26T02:46:13.064Z,97.35
2016-04-26T02:47:13.035Z,97.35
2016-04-26T02:48:13.007Z,97.35
2016-04-26T02:49:12.978Z,97.06
2016-04-26T02:50:12.933Z,97.16
2016-04-26T02:51:12.921Z,97.35
2016-04-26T02:52:12.878Z,97.16
2016-04-26T02:53:12.849Z,97.25
2016-04-26T02:54:12.819Z,97.16
2016-04-26T02:55:12.792Z,97.73
2016-04-26T02:56:12.762Z,97.82
2016-04-26T02:57:12.735Z,97.73
2016-04-26T02:58:12.705Z,97.73
2016-04-26T02:59:12.677Z,97.63
2016-04-26T03:00:12.633Z,97.35
2016-04-26T03:01:12.605Z,97.73
2016-04-26T03:02:13.357Z,98.3
2016-04-26T03:03:12.546Z,98.39
2016-04-26T03:04:12.519Z,98.2
2016-04-26T03:05:12.490Z,98.2
2016-04-26T03:06:12.462Z,98.01
2016-04-26T03:07:12.432Z,98.01
2016-04-26T03:08:12.389Z,98.3
2016-04-26T03:09:12.360Z,97.92
2016-04-26T03:10:12.331Z,98.2
2016-04-26T03:11:12.303Z,98.39
2016-04-26T03:12:12.275Z,98.11
2016-04-26T03:13:12.246Z,98.3
2016-04-26T03:14:12.217Z,98.11
2016-04-26T03:15:12.189Z,97.82
2016-04-26T03:16:12.160Z,97.82
2016-04-26T03:17:12.680Z,97.35
2016-04-26T03:18:12.088Z,97.06
2016-04-26T03:19:12.060Z,97.06
2016-04-26T03:20:12.031Z,97.35
2016-04-26T03:21:12.003Z,97.35
2016-04-26T03:22:11.974Z,96.97
2016-04-26T03:23:11.945Z,97.16
2016-04-26T03:24:11.917Z,97.25
2016-04-26T03:25:11.889Z,97.54
2016-04-26T03:26:11.860Z,97.35
2016-04-26T03:27:11.831Z,97.54
2016-04-26T03:28:11.787Z,97.44
2016-04-26T03:29:11.759Z,97.44
2016-04-26T03:30:11.730Z,97.35
2016-04-26T03:31:11.702Z,97.35
2016-04-26T03:32:11.673Z,97.35
2016-04-26T03:33:11.644Z,97.16
2016-04-26T03:34:11.616Z,97.35
2016-04-26T03:35:11.588Z,97.54
2016-04-26T03:36:11.558Z,97.06
2016-04-26T03:37:11.530Z,97.06
2016-04-26T03:38:11.486Z,96.69
2016-04-26T03:39:11.489Z,96.69
2016-04-26T03:40:11.429Z,96.88
2016-04-26T03:41:11.400Z,97.44
2016-04-26T03:42:11.372Z,97.35
2016-04-26T03:43:11.343Z,97.35
2016-04-26T03:44:11.315Z,97.16
2016-04-26T03:45:11.285Z,97.16
2016-04-26T03:46:11.258Z,97.06
2016-04-26T03:47:11.213Z,97.35
2016-04-26T03:48:11.184Z,97.16
2016-04-26T03:49:11.157Z,97.16
2016-04-26T03:50:11.128Z,97.63
2016-04-26T03:51:11.099Z,97.73
2016-04-26T03:52:11.071Z,97.44
2016-04-26T03:53:11.042Z,97.44
2016-04-26T03:54:11.014Z,97.73
2016-04-26T03:55:10.969Z,98.3
2016-04-26T03:56:10.940Z,98.3
2016-04-26T03:57:10.912Z,98.39
2016-04-26T03:58:10.883Z,98.3
2016-04-26T03:59:10.856Z,98.3
2016-04-26T04:00:10.826Z,98.39
2016-04-26T04:01:10.797Z,98.2
2016-04-26T04:02:11.145Z,98.01
2016-04-26T04:03:10.741Z,98.11
2016-04-26T04:04:10.696Z,98.3
2016-04-26T04:05:10.684Z,98.2
2016-04-26T04:06:10.639Z,98.39
2016-04-26T04:07:10.611Z,97.82
2016-04-26T04:08:10.583Z,97.35
2016-04-26T04:09:10.554Z,97.54
2016-04-26T04:10:10.519Z,97.54
2016-04-26T04:11:10.491Z,97.63
2016-04-26T04:12:10.462Z,97.73
2016-04-26T04:13:10.434Z,97.82
2016-04-26T04:14:10.405Z,97.25
2016-04-26T04:15:10.376Z,97.44
2016-04-26T04:16:10.348Z,97.54
2016-04-26T04:17:10.320Z,97.35
2016-04-26T04:18:10.290Z,97.25
2016-04-26T04:19:10.247Z,97.06
2016-04-26T04:20:10.218Z,97.06
2016-04-26T04:21:10.189Z,97.06
2016-04-26T04:22:10.161Z,97.54
2016-04-26T04:23:10.133Z,97.63
2016-04-26T04:24:10.104Z,97.63
2016-04-26T04:25:10.075Z,97.73
2016-04-26T04:26:10.047Z,97.82
2016-04-26T04:27:10.003Z,97.63
2016-04-26T04:28:09.974Z,98.11
2016-04-26T04:29:09.945Z,97.73
2016-04-26T04:30:09.916Z,97.82
2016-04-26T04:31:09.889Z,97.82
2016-04-26T04:32:09.861Z,97.92
2016-04-26T04:33:09.831Z,98.3
2016-04-26T04:34:09.803Z,98.39
2016-04-26T04:35:09.774Z,98.3
2016-04-26T04:36:09.746Z,98.11
2016-04-26T04:37:09.701Z,98.3
2016-04-26T04:38:09.673Z,98.3
2016-04-26T04:39:09.644Z,98.2
2016-04-26T04:40:09.616Z,98.01
2016-04-26T04:41:09.587Z,98.11
2016-04-26T04:42:09.559Z,98.3
2016-04-26T04:43:09.530Z,98.3
2016-04-26T04:44:09.501Z,98.3
2016-04-26T04:45:09.473Z,98.3
2016-04-26T04:46:09.445Z,98.11
2016-04-26T04:47:09.415Z,98.39
2016-04-26T04:48:09.371Z,98.39
2016-04-26T04:49:09.343Z,98.3
2016-04-26T04:50:09.314Z,98.11
2016-04-26T04:51:09.301Z,98.01
2016-04-26T04:52:09.257Z,97.92
2016-04-26T04:53:09.228Z,98.2
2016-04-26T04:54:09.200Z,98.3
2016-04-26T04:55:09.172Z,97.92
2016-04-26T04:56:09.142Z,98.01
2016-04-26T04:57:09.114Z,98.3
2016-04-26T04:58:09.086Z,98.3
2016-04-26T04:59:09.042Z,98.35
2016-04-26T05:00:09.013Z,97.73
2016-04-26T05:01:08.985Z,98.11
2016-04-26T05:02:08.956Z,98.39
2016-04-26T05:03:08.927Z,98.3
2016-04-26T05:04:08.899Z,98.11
2016-04-26T05:05:08.871Z,98.39
2016-04-26T05:06:08.841Z,98.35
2016-04-26T05:07:08.814Z,98.44
2016-04-26T05:08:08.784Z,98.39
2016-04-26T05:09:08.757Z,98.39
2016-04-26T05:10:08.728Z,98.44
2016-04-26T05:11:08.699Z,98.25
2016-04-26T05:12:08.655Z,98.35
2016-04-26T05:13:08.626Z,98.16
2016-04-26T05:14:08.598Z,97.97
2016-04-26T05:15:08.569Z,98.54
2016-04-26T05:16:08.540Z,98.06
2016-04-26T05:17:09.012Z,98.25
2016-04-26T05:18:08.483Z,98.25
2016-04-26T05:19:08.455Z,98.72
2016-04-26T05:20:08.427Z,98.63
2016-04-26T05:21:08.398Z,98.54
2016-04-26T05:22:08.370Z,98.63
2016-04-26T05:23:08.340Z,98.91
2016-04-26T05:24:08.312Z,99.1
2016-04-26T05:25:08.284Z,98.44
2016-04-26T05:26:08.255Z,98.72
2016-04-26T05:27:08.226Z,98.35
2016-04-26T05:28:08.198Z,98.35
2016-04-26T05:29:08.170Z,98.44
2016-04-26T05:30:08.141Z,98.44
2016-04-26T05:31:08.112Z,98.16
2016-04-26T05:32:08.084Z,98.35
2016-04-26T05:33:08.039Z,98.54
2016-04-26T05:34:08.011Z,98.25
2016-04-26T05:35:07.983Z,98.06
2016-04-26T05:36:07.969Z,98.25
2016-04-26T05:37:07.941Z,98.25
2016-04-26T05:38:07.896Z,98.35
2016-04-26T05:39:07.883Z,98.54
2016-04-26T05:40:07.840Z,98.35
2016-04-26T05:41:07.810Z,98.44
2016-04-26T05:42:07.782Z,97.78
2016-04-26T05:43:07.754Z,97.68
2016-04-26T05:44:07.726Z,97.87
2016-04-26T05:45:07.696Z,97.78
2016-04-26T05:46:07.668Z,97.59
2016-04-26T05:47:07.748Z,97.4
2016-04-26T05:48:07.611Z,97.4
2016-04-26T05:49:07.582Z,97.3
2016-04-26T05:50:07.648Z,97.49
2016-04-26T05:51:07.526Z,97.4
2016-04-26T05:52:07.497Z,97.21
2016-04-26T05:53:07.468Z,97.87
2016-04-26T05:54:07.440Z,97.78
2016-04-26T05:55:07.426Z,97.87
2016-04-26T05:56:07.383Z,97.68
2016-04-26T05:57:07.358Z,97.59
2016-04-26T05:58:07.334Z,97.68
2016-04-26T05:59:07.306Z,97.59
2016-04-26T06:00:07.262Z,97.97
2016-04-26T06:01:07.248Z,98.35
2016-04-26T06:02:07.214Z,98.16
2016-04-26T06:03:07.185Z,98.39
2016-04-26T06:04:07.157Z,98.11
2016-04-26T06:05:07.129Z,98.39
2016-04-26T06:06:07.100Z,98.11
2016-04-26T06:07:07.072Z,98.39
2016-04-26T06:08:07.043Z,98.58
2016-04-26T06:09:07.014Z,98.21
2016-04-26T06:10:06.985Z,98.11
2016-04-26T06:11:06.957Z,98.11
2016-04-26T06:12:06.929Z,98.49
2016-04-26T06:13:06.993Z,98.49
2016-04-26T06:14:06.871Z,98.3
2016-04-26T06:15:06.843Z,98.3
2016-04-26T06:16:06.815Z,98.3
2016-04-26T06:17:06.786Z,98.39
2016-04-26T06:18:06.773Z,98.58
2016-04-26T06:19:06.744Z,98.3
2016-04-26T06:20:06.715Z,98.54
2016-04-26T06:21:06.687Z,98.54
2016-04-26T06:22:06.662Z,98.35
2016-04-26T06:23:06.633Z,98.25
2016-04-26T06:24:06.605Z,98.25
2016-04-26T06:25:06.576Z,98.35
2016-04-26T06:26:06.548Z,97.5
2016-04-26T06:27:06.534Z,97.88
2016-04-26T06:28:06.506Z,97.88
2016-04-26T06:29:06.477Z,97.78
2016-04-26T06:30:06.449Z,97.88
2016-04-26T06:31:06.421Z,97.88
2016-04-26T06:32:06.392Z,97.88
2016-04-26T06:33:06.363Z,98.25
2016-04-26T06:34:06.350Z,98.54
2016-04-26T06:35:06.322Z,98.25
2016-04-26T06:36:06.293Z,98.11
2016-04-26T06:37:06.264Z,98.11
2016-04-26T06:38:06.236Z,97.92
2016-04-26T06:39:06.222Z,98.11
2016-04-26T06:40:06.195Z,97.64
2016-04-26T06:41:06.166Z,97.17
2016-04-26T06:42:06.136Z,97.26
2016-04-26T06:43:06.125Z,97.17
2016-04-26T06:44:06.096Z,97.36
2016-04-26T06:45:06.067Z,96.97
2016-04-26T06:46:06.039Z,96.41
2016-04-26T06:47:06.025Z,97.6
2016-04-26T06:48:05.997Z,97.22
2016-04-26T06:49:05.968Z,96.74
2016-04-26T06:50:05.955Z,96.36
2016-04-26T06:51:05.927Z,96.55
2016-04-26T06:52:05.898Z,95.7
2016-04-26T06:53:05.885Z,95.51
2016-04-26T06:54:05.857Z,95.79
2016-04-26T06:55:05.829Z,95.7
2016-04-26T06:56:05.815Z,95.22
2016-04-26T06:57:05.787Z,95.79
2016-04-26T06:58:05.758Z,95.65
2016-04-26T06:59:05.729Z,95.55
2016-04-26T07:00:05.701Z,94.98
2016-04-26T07:01:05.687Z,95.27
2016-04-26T07:02:05.690Z,94.89
2016-04-26T07:03:05.631Z,95.17
2016-04-26T07:04:05.603Z,95.17
2016-04-26T07:05:05.574Z,95.84
2016-04-26T07:06:05.546Z,95.46
2016-04-26T07:07:05.533Z,95.74
2016-04-26T07:08:05.504Z,95.36
2016-04-26T07:09:05.476Z,95.65
2016-04-26T07:10:05.447Z,95.55
2016-04-26T07:11:05.419Z,95.88
2016-04-26T07:12:05.389Z,95.88
2016-04-26T07:13:05.361Z,95.98
2016-04-26T07:14:05.348Z,96.17
2016-04-26T07:15:05.320Z,96.45
2016-04-26T07:16:05.291Z,96.26
2016-04-26T07:17:05.263Z,96.92
2016-04-26T07:18:05.641Z,96.73
2016-04-26T07:19:05.206Z,96.83
2016-04-26T07:20:05.177Z,96.73
2016-04-26T07:21:05.149Z,97.12
2016-04-26T07:22:05.119Z,97.5
2016-04-26T07:23:05.190Z,97.12
2016-04-26T07:24:05.067Z,97.31
2016-04-26T07:25:05.132Z,97.5
2016-04-26T07:26:05.026Z,97.31
2016-04-26T07:27:04.982Z,97.31
2016-04-26T07:28:04.954Z,97.5
2016-04-26T07:29:05.018Z,97.31
2016-04-26T07:30:04.990Z,97.21
2016-04-26T07:31:04.976Z,97.88
2016-04-26T07:32:04.979Z,97.92
2016-04-26T07:33:04.920Z,97.78
2016-04-26T07:34:04.969Z,98.02
2016-04-26T07:35:04.770Z,98.11
2016-04-26T07:36:04.739Z,98.49
2016-04-26T07:37:04.727Z,98.4
2016-04-26T07:38:04.731Z,98.3
2016-04-26T07:39:04.670Z,98.49
2016-04-26T07:40:04.642Z,97.92
2016-04-26T07:41:04.613Z,98.11
2016-04-26T07:42:04.585Z,97.92
2016-04-26T07:43:04.572Z,98.02
2016-04-26T07:44:04.543Z,97.83
2016-04-26T07:45:04.514Z,98.02
2016-04-26T07:46:04.501Z,97.69
2016-04-26T07:47:04.692Z,97.88
2016-04-26T07:48:04.444Z,97.69
2016-04-26T07:49:04.416Z,96.64
2016-04-26T07:50:04.388Z,96.74
2016-04-26T07:51:04.359Z,96.26
2016-04-26T07:52:04.346Z,96.55
2016-04-26T07:53:04.318Z,95.74
2016-04-26T07:54:04.288Z,95.93
2016-04-26T07:55:04.260Z,96.12
2016-04-26T07:56:04.247Z,95.84
2016-04-26T07:57:04.219Z,96.22
2016-04-26T07:58:04.207Z,96.12
2016-04-26T07:59:04.177Z,95.93
2016-04-26T08:00:04.165Z,96.59
2016-04-26T08:01:04.120Z,96.74
2016-04-26T08:02:04.091Z,95.74
2016-04-26T08:03:04.095Z,96.5
2016-04-26T08:04:04.097Z,96.31
2016-04-26T08:05:04.022Z,96.55
2016-04-26T08:06:03.992Z,96.55
2016-04-26T08:07:03.964Z,96.17
2016-04-26T08:08:03.936Z,96.08
2016-04-26T08:09:03.908Z,96.64
2016-04-26T08:10:03.895Z,96.08
2016-04-26T08:11:03.866Z,96.45
2016-04-26T08:12:03.837Z,96.08
2016-04-26T08:13:03.809Z,96.36
2016-04-26T08:14:03.796Z,96.64
2016-04-26T08:15:03.767Z,96.64
2016-04-26T08:16:03.738Z,96.08
2016-04-26T08:17:03.710Z,95.31
2016-04-26T08:18:03.697Z,95.98
2016-04-26T08:19:03.669Z,96.03
2016-04-26T08:20:03.641Z,96.03
2016-04-26T08:21:03.611Z,96.31
2016-04-26T08:22:03.583Z,96.5
2016-04-26T08:23:03.555Z,96.41
2016-04-26T08:24:03.526Z,96.78
2016-04-26T08:25:03.513Z,96.83
2016-04-26T08:26:03.484Z,96.55
2016-04-26T08:27:03.456Z,96.74
2016-04-26T08:28:03.427Z,96.83
2016-04-26T08:29:03.405Z,97.02
2016-04-26T08:30:03.380Z,96.83
2016-04-26T08:31:03.408Z,96.17
2016-04-26T08:32:03.422Z,96.64
2016-04-26T08:33:03.497Z,96.69
2016-04-26T08:34:03.495Z,96.41
2016-04-26T08:35:03.476Z,96.41
2016-04-26T08:36:03.461Z,96.45
2016-04-26T08:37:03.542Z,96.22
2016-04-26T08:38:03.435Z,96.55
2016-04-26T08:39:03.437Z,96.17
2016-04-26T08:40:03.422Z,96.36
2016-04-26T08:41:03.400Z,96.55
2016-04-26T08:42:03.377Z,96.12
2016-04-26T08:43:03.399Z,96.59
2016-04-26T08:44:03.330Z,96.78
2016-04-26T08:45:03.322Z,96.78
2016-04-26T08:46:03.295Z,97.02
2016-04-26T08:47:03.268Z,97.02
2016-04-26T08:48:03.242Z,97.41
2016-04-26T08:49:03.231Z,98.64
2016-04-26T08:50:03.205Z,99.21
2016-04-26T08:51:03.177Z,98.92
2016-04-26T08:52:03.148Z,98.92
2016-04-26T08:53:03.137Z,98.54
2016-04-26T08:54:03.109Z,98.59
2016-04-26T08:55:03.081Z,98.69
2016-04-26T08:56:03.069Z,98.02
2016-04-26T08:57:03.040Z,97.92
2016-04-26T08:58:03.013Z,97.55
2016-04-26T08:59:03.000Z,97.45
2016-04-26T09:00:02.987Z,96.88
2016-04-26T09:01:02.974Z,96.6
2016-04-26T09:02:02.929Z,96.6
2016-04-26T09:03:02.902Z,96.6
2016-04-26T09:04:02.888Z,96.98
2016-04-26T09:05:02.859Z,97.22
2016-04-26T09:06:02.832Z,97.12
2016-04-26T09:07:02.818Z,96.55
2016-04-26T09:08:02.790Z,95.7
2016-04-26T09:09:02.776Z,95.51
2016-04-26T09:10:02.764Z,94.56
2016-04-26T09:11:02.736Z,94.18
2016-04-26T09:12:02.707Z,93.79
2016-04-26T09:13:02.678Z,93.27
2016-04-26T09:14:02.665Z,93.37
2016-04-26T09:15:02.636Z,93.27
2016-04-26T09:16:02.608Z,94.13
2016-04-26T09:17:02.595Z,94.6
2016-04-26T09:18:02.926Z,94.42
2016-04-26T09:19:02.538Z,94.6
2016-04-26T09:20:02.525Z,94.32
2016-04-26T09:21:02.497Z,94.42
2016-04-26T09:22:02.484Z,94.79
2016-04-26T09:23:02.455Z,94.79
2016-04-26T09:24:02.426Z,93.94
2016-04-26T09:25:02.414Z,93.37
2016-04-26T09:26:02.385Z,93.84
2016-04-26T09:27:02.388Z,93.75
2016-04-26T09:28:02.344Z,94.13
2016-04-26T09:29:02.315Z,93.94
2016-04-26T09:30:02.302Z,93.56
2016-04-26T09:31:02.273Z,93.56
2016-04-26T09:32:02.260Z,93.6
2016-04-26T09:33:02.326Z,93.6
2016-04-26T09:34:02.219Z,93.32
2016-04-26T09:35:02.190Z,93.13
2016-04-26T09:36:02.179Z,93.6
2016-04-26T09:37:02.149Z,93.51
2016-04-26T09:38:02.136Z,93.79
2016-04-26T09:39:03.264Z,93.89
2016-04-26T09:40:02.095Z,93.55
2016-04-26T09:41:02.082Z,93.75
2016-04-26T09:42:02.053Z,93.94
2016-04-26T09:43:02.040Z,92.99
2016-04-26T09:44:02.012Z,93.84
2016-04-26T09:45:01.983Z,93.46
2016-04-26T09:46:01.970Z,92.75
2016-04-26T09:47:01.957Z,93.04
2016-04-26T09:48:02.038Z,93.04
2016-04-26T09:49:01.931Z,92.56
2016-04-26T09:50:01.887Z,91.8
2016-04-26T09:51:01.875Z,90.99
2016-04-26T09:52:01.846Z,90.89
2016-04-26T09:53:01.833Z,90.52
2016-04-26T09:54:01.805Z,90.8
2016-04-26T09:55:01.792Z,90.61
2016-04-26T09:56:01.762Z,90.47
2016-04-26T09:57:01.749Z,89.71
2016-04-26T09:58:01.721Z,89.52
2016-04-26T09:59:01.693Z,89.67
2016-04-26T10:00:01.680Z,89.86
2016-04-26T10:01:01.651Z,89.47
2016-04-26T10:02:01.638Z,89.72
2016-04-26T10:03:01.594Z,90
2016-04-26T10:04:02.096Z,90.47
2016-04-26T10:05:01.552Z,90.76
2016-04-26T10:06:01.524Z,92.18
2016-04-26T10:07:01.496Z,92.75
2016-04-26T10:08:01.482Z,93.41
2016-04-26T10:09:01.454Z,94.27
2016-04-26T10:10:01.425Z,94.79
2016-04-26T10:11:01.398Z,94.74
2016-04-26T10:12:01.368Z,94.93
2016-04-26T10:13:01.340Z,95.79
2016-04-26T10:14:01.326Z,95.31
2016-04-26T10:15:01.298Z,96.17
2016-04-26T10:16:01.269Z,96.26
2016-04-26T10:17:01.242Z,96.74
2016-04-26T10:18:01.212Z,96.45
2016-04-26T10:19:01.184Z,96.83
2016-04-26T10:20:01.250Z,97.31
2016-04-26T10:21:01.142Z,97.6
2016-04-26T10:22:01.113Z,97.6
2016-04-26T10:23:01.086Z,97.31
2016-04-26T10:24:01.058Z,98.07
2016-04-26T10:25:02.293Z,98.35
2016-04-26T10:26:01.016Z,98.12
2016-04-26T10:27:00.987Z,98.21
2016-04-26T10:28:00.958Z,97.64
2016-04-26T10:29:00.930Z,97.64
2016-04-26T10:30:01.119Z,96.88
2016-04-26T10:31:00.889Z,96.5
2016-04-26T10:32:00.860Z,95.65
2016-04-26T10:33:00.847Z,94.93
2016-04-26T10:34:01.350Z,95.31
2016-04-26T10:35:00.790Z,94.74
2016-04-26T10:36:00.758Z,94.46
2016-04-26T10:37:00.729Z,94.74
2016-04-26T10:38:00.718Z,95.79
2016-04-26T10:39:00.687Z,95.51
2016-04-26T10:40:00.660Z,95.98
2016-04-26T10:41:00.631Z,95.79
2016-04-26T10:42:00.603Z,96.74
2016-04-26T10:43:00.589Z,96.64
2016-04-26T10:44:00.561Z,95.98
2016-04-26T10:45:00.532Z,96.93
2016-04-26T10:46:00.504Z,96.6
2016-04-26T10:47:00.491Z,96.5
2016-04-26T10:48:00.462Z,96.5
2016-04-26T10:49:02.670Z,95.94
2016-04-26T10:50:00.420Z,96.03
2016-04-26T10:51:00.393Z,96.12
2016-04-26T10:52:00.364Z,96.12
2016-04-26T10:53:00.350Z,95.51
2016-04-26T10:54:00.416Z,95.51
2016-04-26T10:55:00.294Z,95.6
2016-04-26T10:56:00.280Z,95.79
2016-04-26T10:57:00.253Z,95.22
2016-04-26T10:58:00.224Z,95.22
2016-04-26T10:59:00.211Z,95.03
2016-04-26T11:00:00.182Z,94.46
2016-04-26T11:01:00.169Z,94.65
2016-04-26T11:02:00.141Z,95.03
2016-04-26T11:03:00.300Z,95.12
2016-04-26T11:04:02.163Z,94.46
2016-04-26T11:05:00.071Z,94.65
2016-04-26T11:06:00.042Z,95.22
2016-04-26T11:07:00.030Z,95.32
2016-04-26T11:08:00.001Z,95.98
2016-04-26T11:09:00.222Z,95.89
2016-04-26T11:09:59.960Z,95.7
2016-04-26T11:10:59.931Z,95.75
2016-04-26T11:11:59.902Z,95.65
2016-04-26T11:12:59.889Z,95.17
2016-04-26T11:14:00.455Z,95.36
2016-04-26T11:14:59.848Z,94.6
2016-04-26T11:15:59.820Z,94.13
2016-04-26T11:16:59.790Z,93.79
2016-04-26T11:17:59.778Z,93.51
2016-04-26T11:18:59.765Z,92.85
2016-04-26T11:19:59.720Z,92.75
2016-04-26T11:20:59.708Z,91.52
2016-04-26T11:21:59.679Z,91.94
2016-04-26T11:22:59.650Z,91.85
2016-04-26T11:23:59.622Z,92.42
2016-04-26T11:24:59.609Z,93.46
2016-04-26T11:25:59.581Z,94.79
2016-04-26T11:26:59.552Z,95.36
2016-04-26T11:27:59.539Z,95.55
2016-04-26T11:28:59.511Z,95.6
2016-04-26T11:29:59.483Z,96.17
2016-04-26T11:30:59.469Z,95.89
2016-04-26T11:31:59.441Z,96.08
2016-04-26T11:32:59.693Z,95.51
2016-04-26T11:33:59.399Z,96.08
2016-04-26T11:34:59.371Z,96.17
2016-04-26T11:35:59.342Z,95.98
2016-04-26T11:36:59.329Z,95.46
2016-04-26T11:37:59.299Z,95.75
2016-04-26T11:38:59.272Z,95.08
2016-04-26T11:39:59.259Z,94.79
2016-04-26T11:40:59.246Z,94.89
2016-04-26T11:41:59.202Z,94.51
2016-04-26T11:42:59.188Z,94.6
2016-04-26T11:43:59.159Z,94.89
2016-04-26T11:44:59.490Z,94.13
2016-04-26T11:45:59.119Z,94.22
2016-04-26T11:46:59.106Z,93.89
2016-04-26T11:47:59.077Z,94.08
2016-04-26T11:48:59.049Z,93.7
2016-04-26T11:49:59.020Z,93.6
2016-04-26T11:50:58.992Z,94.18
2016-04-26T11:51:58.978Z,94.27
2016-04-26T11:52:58.950Z,94.27
2016-04-26T11:53:58.922Z,94.46
2016-04-26T11:54:58.909Z,94.93
2016-04-26T11:55:58.881Z,95.12
2016-04-26T11:56:58.851Z,95.03
2016-04-26T11:57:58.822Z,95.03
2016-04-26T11:58:58.810Z,94.46
2016-04-26T11:59:58.781Z,94.84
2016-04-26T12:00:58.752Z,94.93
2016-04-26T12:01:58.724Z,95.32
2016-04-26T12:02:58.711Z,95.32
2016-04-26T12:03:59.386Z,95.12
2016-04-26T12:04:58.654Z,95.6
2016-04-26T12:05:58.625Z,96.08
2016-04-26T12:06:58.597Z,95.89
2016-04-26T12:07:58.585Z,95.27
2016-04-26T12:08:58.555Z,95.08
2016-04-26T12:09:58.527Z,95.75
2016-04-26T12:10:58.498Z,95.75
2016-04-26T12:11:58.471Z,95.46
2016-04-26T12:12:58.457Z,95.46
2016-04-26T12:13:58.428Z,95.94
2016-04-26T12:14:58.399Z,95.55
2016-04-26T12:15:58.371Z,95.46
2016-04-26T12:16:58.342Z,92.42
2016-04-26T12:17:58.315Z,90.47
2016-04-26T12:18:58.285Z,90.09
2016-04-26T12:19:58.273Z,90.24
2016-04-26T12:20:58.244Z,90
2016-04-26T12:21:58.215Z,90.38
2016-04-26T12:22:58.186Z,90.29
2016-04-26T12:23:58.158Z,90.62
2016-04-26T12:24:58.130Z,91.38
2016-04-26T12:25:58.101Z,92.61
2016-04-26T12:26:58.072Z,92.71
2016-04-26T12:27:58.044Z,93.18
2016-04-26T12:28:58.016Z,94.42
2016-04-26T12:29:58.019Z,94.65
2016-04-26T12:30:57.958Z,95.84
2016-04-26T12:31:57.930Z,95.45
2016-04-26T12:32:57.902Z,96.41
2016-04-26T12:33:58.247Z,96.5
2016-04-26T12:34:57.844Z,97.45
2016-04-26T12:35:57.815Z,97.83
2016-04-26T12:36:57.819Z,98.21
2016-04-26T12:37:57.883Z,98.49
2016-04-26T12:38:57.761Z,98.02
2016-04-26T12:39:57.717Z,97.92
2016-04-26T12:40:57.688Z,97.5
2016-04-26T12:41:57.660Z,97.5
2016-04-26T12:42:57.632Z,97.69
2016-04-26T12:43:57.603Z,96.64
2016-04-26T12:44:57.684Z,96.83
2016-04-26T12:45:58.014Z,96.45
2016-04-26T12:46:57.533Z,95.36
2016-04-26T12:47:57.489Z,95.36
2016-04-26T12:48:57.585Z,95.45
2016-04-26T12:49:57.447Z,95.55
2016-04-26T12:50:57.451Z,95.26
2016-04-26T12:51:57.406Z,95.45
2016-04-26T12:52:57.362Z,96.03
2016-04-26T12:53:57.333Z,95.93
2016-04-26T12:54:57.304Z,96.41
2016-04-26T12:55:57.292Z,96.41